sensor_id;sensor_type;location;lat;lon;timestamp;P1;durP1;ratioP1;P2;durP2;ratioP2
65759;SDS011;52496;51.082;5.066;2023-02-12T00:02:06;62.65;;;28.67;;
65759;SDS011;52496;51.082;5.066;2023-02-12T00:04:36;68.22;;;29.10;;
65759;SDS011;52496;51.082;5.066;2023-02-12T00:07:07;75.78;;;33.30;;
65759;SDS011;52496;51.082;5.066;2023-02-12T00:09:38;78.55;;;34.25;;
65759;SDS011;52496;51.082;5.066;2023-02-12T00:12:09;71.63;;;33.65;;
65759;SDS011;52496;51.082;5.066;2023-02-12T00:14:39;68.97;;;29.77;;
65759;SDS011;52496;51.082;5.066;2023-02-12T00:17:10;79.40;;;30.48;;
65759;SDS011;52496;51.082;5.066;2023-02-12T00:19:40;68.50;;;28.95;;
65759;SDS011;52496;51.082;5.066;2023-02-12T00:22:11;71.05;;;30.52;;
65759;SDS011;52496;51.082;5.066;2023-02-12T00:24:41;63.35;;;30.83;;
65759;SDS011;52496;51.082;5.066;2023-02-12T00:27:12;73.28;;;31.10;;
65759;SDS011;52496;51.082;5.066;2023-02-12T00:29:42;70.40;;;30.90;;
65759;SDS011;52496;51.082;5.066;2023-02-12T00:32:13;69.57;;;31.90;;
65759;SDS011;52496;51.082;5.066;2023-02-12T00:34:48;77.03;;;33.20;;
65759;SDS011;52496;51.082;5.066;2023-02-12T00:37:18;74.10;;;33.10;;
65759;SDS011;52496;51.082;5.066;2023-02-12T00:39:49;77.95;;;34.90;;
65759;SDS011;52496;51.082;5.066;2023-02-12T00:42:19;79.13;;;36.00;;
65759;SDS011;52496;51.082;5.066;2023-02-12T00:44:50;79.90;;;35.03;;
65759;SDS011;52496;51.082;5.066;2023-02-12T00:47:20;80.93;;;36.15;;
65759;SDS011;52496;51.082;5.066;2023-02-12T00:49:51;83.20;;;34.47;;
65759;SDS011;52496;51.082;5.066;2023-02-12T00:52:21;73.97;;;32.15;;
65759;SDS011;52496;51.082;5.066;2023-02-12T00:54:52;84.20;;;35.00;;
65759;SDS011;52496;51.082;5.066;2023-02-12T00:57:23;82.28;;;35.63;;
65759;SDS011;52496;51.082;5.066;2023-02-12T00:59:54;86.13;;;34.35;;
65759;SDS011;52496;51.082;5.066;2023-02-12T01:02:24;73.18;;;35.15;;
65759;SDS011;52496;51.082;5.066;2023-02-12T01:04:55;80.97;;;34.28;;
65759;SDS011;52496;51.082;5.066;2023-02-12T01:07:25;72.93;;;31.05;;
65759;SDS011;52496;51.082;5.066;2023-02-12T01:09:56;78.10;;;32.33;;
65759;SDS011;52496;51.082;5.066;2023-02-12T01:12:26;76.63;;;34.45;;
65759;SDS011;52496;51.082;5.066;2023-02-12T01:14:57;74.45;;;33.42;;
65759;SDS011;52496;51.082;5.066;2023-02-12T01:17:27;78.22;;;36.20;;
65759;SDS011;52496;51.082;5.066;2023-02-12T01:19:58;77.07;;;32.58;;
65759;SDS011;52496;51.082;5.066;2023-02-12T01:22:28;74.60;;;32.95;;
65759;SDS011;52496;51.082;5.066;2023-02-12T01:24:59;81.75;;;34.20;;
65759;SDS011;52496;51.082;5.066;2023-02-12T01:27:29;72.68;;;33.38;;
65759;SDS011;52496;51.082;5.066;2023-02-12T01:30:00;81.88;;;33.35;;
65759;SDS011;52496;51.082;5.066;2023-02-12T01:32:31;76.30;;;32.08;;
65759;SDS011;52496;51.082;5.066;2023-02-12T01:35:01;73.07;;;33.72;;
65759;SDS011;52496;51.082;5.066;2023-02-12T01:37:33;83.32;;;34.22;;
65759;SDS011;52496;51.082;5.066;2023-02-12T01:40:06;72.47;;;34.30;;
65759;SDS011;52496;51.082;5.066;2023-02-12T01:42:38;73.80;;;32.13;;
65759;SDS011;52496;51.082;5.066;2023-02-12T01:45:54;67.80;;;31.73;;
65759;SDS011;52496;51.082;5.066;2023-02-12T01:48:06;68.78;;;30.25;;
65759;SDS011;52496;51.082;5.066;2023-02-12T01:50:36;82.07;;;34.83;;
65759;SDS011;52496;51.082;5.066;2023-02-12T01:53:07;69.60;;;33.13;;
65759;SDS011;52496;51.082;5.066;2023-02-12T01:55:38;65.70;;;32.13;;
65759;SDS011;52496;51.082;5.066;2023-02-12T01:58:09;61.72;;;30.50;;
65759;SDS011;52496;51.082;5.066;2023-02-12T02:00:40;64.60;;;32.30;;
65759;SDS011;52496;51.082;5.066;2023-02-12T02:03:10;69.88;;;33.85;;
65759;SDS011;52496;51.082;5.066;2023-02-12T02:05:56;67.75;;;32.88;;
65759;SDS011;52496;51.082;5.066;2023-02-12T02:08:30;73.60;;;32.05;;
65759;SDS011;52496;51.082;5.066;2023-02-12T02:11:02;76.53;;;33.13;;
65759;SDS011;52496;51.082;5.066;2023-02-12T02:13:53;67.55;;;29.38;;
65759;SDS011;52496;51.082;5.066;2023-02-12T02:16:45;67.28;;;31.50;;
65759;SDS011;52496;51.082;5.066;2023-02-12T02:22:16;58.92;;;28.25;;
65759;SDS011;52496;51.082;5.066;2023-02-12T02:28:00;71.85;;;29.48;;
65759;SDS011;52496;51.082;5.066;2023-02-12T02:30:47;62.25;;;29.52;;
65759;SDS011;52496;51.082;5.066;2023-02-12T02:33:46;72.00;;;28.77;;
65759;SDS011;52496;51.082;5.066;2023-02-12T02:36:42;62.17;;;29.05;;
65759;SDS011;52496;51.082;5.066;2023-02-12T02:44:53;61.15;;;27.65;;
65759;SDS011;52496;51.082;5.066;2023-02-12T02:47:31;59.92;;;27.25;;
65759;SDS011;52496;51.082;5.066;2023-02-12T02:50:07;62.78;;;28.17;;
65759;SDS011;52496;51.082;5.066;2023-02-12T02:52:43;58.72;;;27.45;;
65759;SDS011;52496;51.082;5.066;2023-02-12T02:55:19;58.55;;;29.55;;
65759;SDS011;52496;51.082;5.066;2023-02-12T02:57:54;50.75;;;26.08;;
65759;SDS011;52496;51.082;5.066;2023-02-12T03:00:38;61.13;;;26.15;;
65759;SDS011;52496;51.082;5.066;2023-02-12T03:03:29;61.33;;;27.67;;
65759;SDS011;52496;51.082;5.066;2023-02-12T03:06:12;60.97;;;29.13;;
65759;SDS011;52496;51.082;5.066;2023-02-12T03:08:50;54.15;;;25.10;;
65759;SDS011;52496;51.082;5.066;2023-02-12T03:11:24;63.00;;;26.67;;
65759;SDS011;52496;51.082;5.066;2023-02-12T03:16:40;58.38;;;27.42;;
65759;SDS011;52496;51.082;5.066;2023-02-12T03:19:34;59.90;;;26.35;;
65759;SDS011;52496;51.082;5.066;2023-02-12T03:22:11;66.65;;;28.35;;
65759;SDS011;52496;51.082;5.066;2023-02-12T03:27:37;55.50;;;27.23;;
65759;SDS011;52496;51.082;5.066;2023-02-12T03:30:11;62.65;;;28.73;;
65759;SDS011;52496;51.082;5.066;2023-02-12T03:32:54;61.20;;;26.42;;
65759;SDS011;52496;51.082;5.066;2023-02-12T03:35:37;57.95;;;25.98;;
65759;SDS011;52496;51.082;5.066;2023-02-12T03:38:19;61.95;;;28.45;;
65759;SDS011;52496;51.082;5.066;2023-02-12T03:44:00;55.33;;;27.42;;
65759;SDS011;52496;51.082;5.066;2023-02-12T03:46:39;63.78;;;27.13;;
65759;SDS011;52496;51.082;5.066;2023-02-12T03:49:19;59.63;;;26.90;;
65759;SDS011;52496;51.082;5.066;2023-02-12T03:51:57;62.95;;;25.63;;
65759;SDS011;52496;51.082;5.066;2023-02-12T03:54:28;51.85;;;25.75;;
65759;SDS011;52496;51.082;5.066;2023-02-12T03:59:38;66.18;;;28.38;;
65759;SDS011;52496;51.082;5.066;2023-02-12T04:02:09;64.45;;;29.70;;
65759;SDS011;52496;51.082;5.066;2023-02-12T04:04:41;63.60;;;28.73;;
65759;SDS011;52496;51.082;5.066;2023-02-12T04:07:13;59.00;;;27.13;;
65759;SDS011;52496;51.082;5.066;2023-02-12T04:09:44;59.47;;;26.42;;
65759;SDS011;52496;51.082;5.066;2023-02-12T04:20:26;60.00;;;27.08;;
65759;SDS011;52496;51.082;5.066;2023-02-12T04:29:00;50.45;;;24.52;;
65759;SDS011;52496;51.082;5.066;2023-02-12T04:34:43;56.13;;;23.67;;
65759;SDS011;52496;51.082;5.066;2023-02-12T04:40:09;56.70;;;25.58;;
65759;SDS011;52496;51.082;5.066;2023-02-12T04:42:44;65.07;;;25.85;;
65759;SDS011;52496;51.082;5.066;2023-02-12T04:45:19;56.03;;;24.88;;
65759;SDS011;52496;51.082;5.066;2023-02-12T04:48:00;57.70;;;25.25;;
65759;SDS011;52496;51.082;5.066;2023-02-12T04:50:39;52.15;;;25.98;;
65759;SDS011;52496;51.082;5.066;2023-02-12T04:53:11;58.17;;;25.95;;
65759;SDS011;52496;51.082;5.066;2023-02-12T04:55:41;47.65;;;22.60;;
65759;SDS011;52496;51.082;5.066;2023-02-12T04:58:12;53.88;;;25.15;;
65759;SDS011;52496;51.082;5.066;2023-02-12T05:00:42;57.67;;;25.67;;
65759;SDS011;52496;51.082;5.066;2023-02-12T05:03:13;58.05;;;26.05;;
65759;SDS011;52496;51.082;5.066;2023-02-12T05:05:43;60.67;;;25.65;;
65759;SDS011;52496;51.082;5.066;2023-02-12T05:08:14;62.50;;;25.67;;
65759;SDS011;52496;51.082;5.066;2023-02-12T05:10:44;56.05;;;26.30;;
65759;SDS011;52496;51.082;5.066;2023-02-12T05:13:15;57.80;;;27.48;;
65759;SDS011;52496;51.082;5.066;2023-02-12T05:15:45;57.85;;;26.60;;
65759;SDS011;52496;51.082;5.066;2023-02-12T05:18:16;53.65;;;24.63;;
65759;SDS011;52496;51.082;5.066;2023-02-12T05:20:53;54.40;;;24.77;;
65759;SDS011;52496;51.082;5.066;2023-02-12T05:23:26;53.10;;;24.90;;
65759;SDS011;52496;51.082;5.066;2023-02-12T05:26:02;55.53;;;24.92;;
65759;SDS011;52496;51.082;5.066;2023-02-12T05:28:34;55.10;;;26.08;;
65759;SDS011;52496;51.082;5.066;2023-02-12T05:31:06;48.30;;;24.48;;
65759;SDS011;52496;51.082;5.066;2023-02-12T05:33:37;45.47;;;22.98;;
65759;SDS011;52496;51.082;5.066;2023-02-12T05:36:11;54.88;;;24.35;;
65759;SDS011;52496;51.082;5.066;2023-02-12T05:38:44;57.63;;;24.50;;
65759;SDS011;52496;51.082;5.066;2023-02-12T05:41:17;47.05;;;23.33;;
65759;SDS011;52496;51.082;5.066;2023-02-12T05:43:51;49.22;;;24.77;;
65759;SDS011;52496;51.082;5.066;2023-02-12T05:46:23;47.15;;;21.85;;
65759;SDS011;52496;51.082;5.066;2023-02-12T05:48:53;50.85;;;23.10;;
65759;SDS011;52496;51.082;5.066;2023-02-12T05:51:25;45.90;;;21.88;;
65759;SDS011;52496;51.082;5.066;2023-02-12T05:54:00;48.80;;;23.38;;
65759;SDS011;52496;51.082;5.066;2023-02-12T05:56:33;43.65;;;22.67;;
65759;SDS011;52496;51.082;5.066;2023-02-12T05:59:13;51.10;;;22.88;;
65759;SDS011;52496;51.082;5.066;2023-02-12T06:01:45;47.35;;;25.17;;
65759;SDS011;52496;51.082;5.066;2023-02-12T06:04:18;51.88;;;24.20;;
65759;SDS011;52496;51.082;5.066;2023-02-12T06:06:52;48.67;;;22.52;;
65759;SDS011;52496;51.082;5.066;2023-02-12T06:09:24;50.33;;;24.27;;
65759;SDS011;52496;51.082;5.066;2023-02-12T06:11:55;47.90;;;22.45;;
65759;SDS011;52496;51.082;5.066;2023-02-12T06:14:25;46.90;;;21.83;;
65759;SDS011;52496;51.082;5.066;2023-02-12T06:16:56;50.38;;;23.20;;
65759;SDS011;52496;51.082;5.066;2023-02-12T06:19:27;54.33;;;25.13;;
65759;SDS011;52496;51.082;5.066;2023-02-12T06:21:58;51.65;;;23.75;;
65759;SDS011;52496;51.082;5.066;2023-02-12T06:24:29;46.78;;;22.15;;
65759;SDS011;52496;51.082;5.066;2023-02-12T06:27:00;45.47;;;21.40;;
65759;SDS011;52496;51.082;5.066;2023-02-12T06:29:31;49.47;;;23.45;;
65759;SDS011;52496;51.082;5.066;2023-02-12T06:32:01;41.13;;;20.85;;
65759;SDS011;52496;51.082;5.066;2023-02-12T06:34:32;55.38;;;23.45;;
65759;SDS011;52496;51.082;5.066;2023-02-12T06:37:03;47.22;;;21.35;;
65759;SDS011;52496;51.082;5.066;2023-02-12T06:39:33;40.67;;;20.65;;
65759;SDS011;52496;51.082;5.066;2023-02-12T06:42:04;38.40;;;20.67;;
65759;SDS011;52496;51.082;5.066;2023-02-12T06:44:35;44.03;;;21.40;;
65759;SDS011;52496;51.082;5.066;2023-02-12T06:47:06;44.15;;;21.35;;
65759;SDS011;52496;51.082;5.066;2023-02-12T06:49:36;44.38;;;22.73;;
65759;SDS011;52496;51.082;5.066;2023-02-12T06:52:07;46.25;;;20.55;;
65759;SDS011;52496;51.082;5.066;2023-02-12T06:54:37;45.83;;;21.05;;
65759;SDS011;52496;51.082;5.066;2023-02-12T06:57:08;46.53;;;21.27;;
65759;SDS011;52496;51.082;5.066;2023-02-12T06:59:39;43.83;;;20.77;;
65759;SDS011;52496;51.082;5.066;2023-02-12T07:02:10;41.95;;;20.80;;
65759;SDS011;52496;51.082;5.066;2023-02-12T07:04:41;44.00;;;20.20;;
65759;SDS011;52496;51.082;5.066;2023-02-12T07:07:11;41.28;;;19.42;;
65759;SDS011;52496;51.082;5.066;2023-02-12T07:09:42;45.25;;;22.55;;
65759;SDS011;52496;51.082;5.066;2023-02-12T07:12:13;46.38;;;21.63;;
65759;SDS011;52496;51.082;5.066;2023-02-12T07:14:43;48.08;;;20.73;;
65759;SDS011;52496;51.082;5.066;2023-02-12T07:17:14;44.45;;;22.48;;
65759;SDS011;52496;51.082;5.066;2023-02-12T07:19:44;43.75;;;21.33;;
65759;SDS011;52496;51.082;5.066;2023-02-12T07:22:15;38.05;;;18.30;;
65759;SDS011;52496;51.082;5.066;2023-02-12T07:24:46;43.08;;;20.40;;
65759;SDS011;52496;51.082;5.066;2023-02-12T07:27:17;39.03;;;20.88;;
65759;SDS011;52496;51.082;5.066;2023-02-12T07:29:47;35.03;;;19.25;;
65759;SDS011;52496;51.082;5.066;2023-02-12T07:32:18;39.42;;;19.83;;
65759;SDS011;52496;51.082;5.066;2023-02-12T07:34:48;38.55;;;19.33;;
65759;SDS011;52496;51.082;5.066;2023-02-12T07:37:19;41.47;;;20.35;;
65759;SDS011;52496;51.082;5.066;2023-02-12T07:39:51;39.40;;;19.45;;
65759;SDS011;52496;51.082;5.066;2023-02-12T07:42:22;42.95;;;20.17;;
65759;SDS011;52496;51.082;5.066;2023-02-12T07:44:52;48.45;;;22.23;;
65759;SDS011;52496;51.082;5.066;2023-02-12T07:47:23;42.67;;;20.15;;
65759;SDS011;52496;51.082;5.066;2023-02-12T07:49:53;42.15;;;21.25;;
65759;SDS011;52496;51.082;5.066;2023-02-12T07:52:24;35.00;;;19.23;;
65759;SDS011;52496;51.082;5.066;2023-02-12T07:54:55;39.80;;;20.50;;
65759;SDS011;52496;51.082;5.066;2023-02-12T07:57:25;39.10;;;19.33;;
65759;SDS011;52496;51.082;5.066;2023-02-12T07:59:56;42.33;;;21.15;;
65759;SDS011;52496;51.082;5.066;2023-02-12T08:02:26;39.30;;;19.98;;
65759;SDS011;52496;51.082;5.066;2023-02-12T08:04:57;41.38;;;19.73;;
65759;SDS011;52496;51.082;5.066;2023-02-12T08:07:28;47.47;;;19.33;;
65759;SDS011;52496;51.082;5.066;2023-02-12T08:09:58;41.95;;;20.33;;
65759;SDS011;52496;51.082;5.066;2023-02-12T08:12:29;42.85;;;21.55;;
65759;SDS011;52496;51.082;5.066;2023-02-12T08:14:59;42.30;;;19.83;;
65759;SDS011;52496;51.082;5.066;2023-02-12T08:17:30;41.35;;;19.70;;
65759;SDS011;52496;51.082;5.066;2023-02-12T08:20:00;38.47;;;19.05;;
65759;SDS011;52496;51.082;5.066;2023-02-12T08:22:31;43.05;;;19.95;;
65759;SDS011;52496;51.082;5.066;2023-02-12T08:25:01;41.55;;;19.90;;
65759;SDS011;52496;51.082;5.066;2023-02-12T08:27:32;41.20;;;20.60;;
65759;SDS011;52496;51.082;5.066;2023-02-12T08:30:02;40.50;;;19.92;;
65759;SDS011;52496;51.082;5.066;2023-02-12T08:32:33;41.70;;;20.10;;
65759;SDS011;52496;51.082;5.066;2023-02-12T08:35:03;40.47;;;19.20;;
65759;SDS011;52496;51.082;5.066;2023-02-12T08:37:34;39.53;;;18.98;;
65759;SDS011;52496;51.082;5.066;2023-02-12T08:40:04;38.53;;;18.92;;
65759;SDS011;52496;51.082;5.066;2023-02-12T08:42:36;40.80;;;20.35;;
65759;SDS011;52496;51.082;5.066;2023-02-12T08:45:06;35.13;;;17.27;;
65759;SDS011;52496;51.082;5.066;2023-02-12T08:47:37;41.45;;;20.63;;
65759;SDS011;52496;51.082;5.066;2023-02-12T08:50:08;35.70;;;19.33;;
65759;SDS011;52496;51.082;5.066;2023-02-12T08:52:38;38.50;;;20.45;;
65759;SDS011;52496;51.082;5.066;2023-02-12T08:55:09;36.75;;;20.33;;
65759;SDS011;52496;51.082;5.066;2023-02-12T08:57:40;41.83;;;20.77;;
65759;SDS011;52496;51.082;5.066;2023-02-12T09:00:11;37.70;;;19.65;;
65759;SDS011;52496;51.082;5.066;2023-02-12T09:02:42;34.58;;;18.52;;
65759;SDS011;52496;51.082;5.066;2023-02-12T09:05:13;45.42;;;21.30;;
65759;SDS011;52496;51.082;5.066;2023-02-12T09:07:43;43.20;;;20.27;;
65759;SDS011;52496;51.082;5.066;2023-02-12T09:10:14;43.17;;;21.02;;
65759;SDS011;52496;51.082;5.066;2023-02-12T09:12:44;41.65;;;20.85;;
65759;SDS011;52496;51.082;5.066;2023-02-12T09:15:15;37.50;;;19.77;;
65759;SDS011;52496;51.082;5.066;2023-02-12T09:17:45;39.42;;;18.83;;
65759;SDS011;52496;51.082;5.066;2023-02-12T09:20:16;43.65;;;21.40;;
65759;SDS011;52496;51.082;5.066;2023-02-12T09:22:46;38.83;;;21.67;;
65759;SDS011;52496;51.082;5.066;2023-02-12T09:25:17;42.97;;;22.58;;
65759;SDS011;52496;51.082;5.066;2023-02-12T09:27:48;48.65;;;23.45;;
65759;SDS011;52496;51.082;5.066;2023-02-12T09:30:18;46.72;;;23.38;;
65759;SDS011;52496;51.082;5.066;2023-02-12T09:32:49;44.78;;;23.55;;
65759;SDS011;52496;51.082;5.066;2023-02-12T09:35:19;45.13;;;23.63;;
65759;SDS011;52496;51.082;5.066;2023-02-12T09:37:51;44.00;;;23.25;;
65759;SDS011;52496;51.082;5.066;2023-02-12T09:43:30;44.33;;;22.92;;
65759;SDS011;52496;51.082;5.066;2023-02-12T09:46:26;44.90;;;21.40;;
65759;SDS011;52496;51.082;5.066;2023-02-12T09:51:32;40.13;;;20.27;;
65759;SDS011;52496;51.082;5.066;2023-02-12T09:54:04;40.20;;;20.35;;
65759;SDS011;52496;51.082;5.066;2023-02-12T09:56:41;42.10;;;21.25;;
65759;SDS011;52496;51.082;5.066;2023-02-12T09:59:32;41.72;;;21.42;;
65759;SDS011;52496;51.082;5.066;2023-02-12T10:02:19;38.50;;;20.23;;
65759;SDS011;52496;51.082;5.066;2023-02-12T10:04:52;40.78;;;19.95;;
65759;SDS011;52496;51.082;5.066;2023-02-12T10:13:10;37.30;;;20.88;;
65759;SDS011;52496;51.082;5.066;2023-02-12T10:21:52;40.85;;;21.15;;
65759;SDS011;52496;51.082;5.066;2023-02-12T10:27:48;35.42;;;19.70;;
65759;SDS011;52496;51.082;5.066;2023-02-12T10:30:34;41.28;;;20.15;;
65759;SDS011;52496;51.082;5.066;2023-02-12T10:33:13;40.58;;;21.67;;
65759;SDS011;52496;51.082;5.066;2023-02-12T10:35:53;37.00;;;19.98;;
65759;SDS011;52496;51.082;5.066;2023-02-12T10:38:33;40.47;;;20.67;;
65759;SDS011;52496;51.082;5.066;2023-02-12T10:41:09;33.85;;;18.73;;
65759;SDS011;52496;51.082;5.066;2023-02-12T10:43:42;46.60;;;19.58;;
65759;SDS011;52496;51.082;5.066;2023-02-12T10:46:16;41.00;;;20.52;;
65759;SDS011;52496;51.082;5.066;2023-02-12T10:48:47;37.70;;;20.33;;
65759;SDS011;52496;51.082;5.066;2023-02-12T10:57:05;35.35;;;19.33;;
65759;SDS011;52496;51.082;5.066;2023-02-12T10:59:41;40.70;;;20.33;;
65759;SDS011;52496;51.082;5.066;2023-02-12T11:02:20;37.33;;;20.15;;
65759;SDS011;52496;51.082;5.066;2023-02-12T11:04:59;41.38;;;20.35;;
65759;SDS011;52496;51.082;5.066;2023-02-12T11:07:46;40.83;;;21.88;;
65759;SDS011;52496;51.082;5.066;2023-02-12T11:10:24;47.90;;;23.73;;
65759;SDS011;52496;51.082;5.066;2023-02-12T11:13:00;44.00;;;21.50;;
65759;SDS011;52496;51.082;5.066;2023-02-12T11:15:37;41.47;;;21.52;;
65759;SDS011;52496;51.082;5.066;2023-02-12T11:18:29;40.10;;;20.60;;
65759;SDS011;52496;51.082;5.066;2023-02-12T11:21:03;41.78;;;22.08;;
65759;SDS011;52496;51.082;5.066;2023-02-12T11:23:37;41.65;;;20.70;;
65759;SDS011;52496;51.082;5.066;2023-02-12T11:28:56;47.58;;;24.52;;
65759;SDS011;52496;51.082;5.066;2023-02-12T11:31:27;42.72;;;22.77;;
65759;SDS011;52496;51.082;5.066;2023-02-12T11:36:43;46.40;;;23.50;;
65759;SDS011;52496;51.082;5.066;2023-02-12T11:39:26;41.83;;;22.83;;
65759;SDS011;52496;51.082;5.066;2023-02-12T11:42:00;44.25;;;22.90;;
65759;SDS011;52496;51.082;5.066;2023-02-12T11:44:47;47.10;;;24.45;;
65759;SDS011;52496;51.082;5.066;2023-02-12T11:47:25;44.90;;;23.00;;
65759;SDS011;52496;51.082;5.066;2023-02-12T11:52:32;49.22;;;23.40;;
65759;SDS011;52496;51.082;5.066;2023-02-12T11:55:10;41.53;;;21.58;;
65759;SDS011;52496;51.082;5.066;2023-02-12T12:03:36;43.45;;;22.30;;
65759;SDS011;52496;51.082;5.066;2023-02-12T12:06:20;43.22;;;20.70;;
65759;SDS011;52496;51.082;5.066;2023-02-12T12:09:02;42.92;;;19.38;;
65759;SDS011;52496;51.082;5.066;2023-02-12T12:14:32;37.10;;;18.95;;
65759;SDS011;52496;51.082;5.066;2023-02-12T12:20:49;42.67;;;20.60;;
65759;SDS011;52496;51.082;5.066;2023-02-12T12:23:25;38.97;;;20.05;;
65759;SDS011;52496;51.082;5.066;2023-02-12T12:26:09;42.97;;;21.30;;
65759;SDS011;52496;51.082;5.066;2023-02-12T12:31:56;32.28;;;17.80;;
65759;SDS011;52496;51.082;5.066;2023-02-12T12:34:30;37.38;;;18.40;;
65759;SDS011;52496;51.082;5.066;2023-02-12T12:43:23;36.03;;;18.70;;
65759;SDS011;52496;51.082;5.066;2023-02-12T12:48:42;33.35;;;16.83;;
65759;SDS011;52496;51.082;5.066;2023-02-12T12:51:42;34.90;;;18.05;;
65759;SDS011;52496;51.082;5.066;2023-02-12T13:14:42;33.33;;;17.80;;
65759;SDS011;52496;51.082;5.066;2023-02-12T13:22:57;34.13;;;18.60;;
65759;SDS011;52496;51.082;5.066;2023-02-12T13:28:45;33.67;;;16.85;;
65759;SDS011;52496;51.082;5.066;2023-02-12T13:31:24;32.13;;;17.23;;
65759;SDS011;52496;51.082;5.066;2023-02-12T13:33:59;37.30;;;18.63;;
65759;SDS011;52496;51.082;5.066;2023-02-12T13:36:34;32.85;;;16.25;;
65759;SDS011;52496;51.082;5.066;2023-02-12T13:39:11;32.05;;;16.73;;
65759;SDS011;52496;51.082;5.066;2023-02-12T13:41:46;36.63;;;18.25;;
65759;SDS011;52496;51.082;5.066;2023-02-12T13:44:31;31.92;;;15.52;;
65759;SDS011;52496;51.082;5.066;2023-02-12T13:47:25;33.33;;;16.48;;
65759;SDS011;52496;51.082;5.066;2023-02-12T13:56:28;29.98;;;16.83;;
65759;SDS011;52496;51.082;5.066;2023-02-12T14:02:48;38.50;;;17.92;;
65759;SDS011;52496;51.082;5.066;2023-02-12T14:07:55;36.90;;;17.45;;
65759;SDS011;52496;51.082;5.066;2023-02-12T14:13:18;31.95;;;16.38;;
65759;SDS011;52496;51.082;5.066;2023-02-12T14:15:53;36.67;;;18.15;;
65759;SDS011;52496;51.082;5.066;2023-02-12T14:18:30;37.42;;;18.23;;
65759;SDS011;52496;51.082;5.066;2023-02-12T14:23:44;32.38;;;18.38;;
65759;SDS011;52496;51.082;5.066;2023-02-12T14:26:19;34.05;;;17.70;;
65759;SDS011;52496;51.082;5.066;2023-02-12T14:28:53;36.47;;;18.55;;
65759;SDS011;52496;51.082;5.066;2023-02-12T14:31:35;33.03;;;17.52;;
65759;SDS011;52496;51.082;5.066;2023-02-12T14:37:14;34.03;;;17.73;;
65759;SDS011;52496;51.082;5.066;2023-02-12T14:49:23;34.75;;;16.67;;
65759;SDS011;52496;51.082;5.066;2023-02-12T14:52:00;33.78;;;16.95;;
65759;SDS011;52496;51.082;5.066;2023-02-12T14:54:51;31.17;;;17.33;;
65759;SDS011;52496;51.082;5.066;2023-02-12T14:57:40;31.85;;;16.13;;
65759;SDS011;52496;51.082;5.066;2023-02-12T15:00:33;30.30;;;15.95;;
65759;SDS011;52496;51.082;5.066;2023-02-12T15:03:54;33.70;;;16.45;;
65759;SDS011;52496;51.082;5.066;2023-02-12T15:06:22;29.13;;;16.27;;
65759;SDS011;52496;51.082;5.066;2023-02-12T15:09:46;34.42;;;17.17;;
65759;SDS011;52496;51.082;5.066;2023-02-12T15:12:52;32.78;;;16.30;;
65759;SDS011;52496;51.082;5.066;2023-02-12T15:21:59;32.70;;;17.77;;
65759;SDS011;52496;51.082;5.066;2023-02-12T15:24:52;34.00;;;16.08;;
65759;SDS011;52496;51.082;5.066;2023-02-12T15:28:03;32.33;;;15.30;;
65759;SDS011;52496;51.082;5.066;2023-02-12T15:30:44;28.60;;;14.82;;
65759;SDS011;52496;51.082;5.066;2023-02-12T15:33:22;30.83;;;15.45;;
65759;SDS011;52496;51.082;5.066;2023-02-12T15:36:22;28.30;;;16.00;;
65759;SDS011;52496;51.082;5.066;2023-02-12T15:39:19;28.45;;;15.15;;
65759;SDS011;52496;51.082;5.066;2023-02-12T15:42:04;32.83;;;15.98;;
65759;SDS011;52496;51.082;5.066;2023-02-12T15:48:12;33.97;;;16.40;;
65759;SDS011;52496;51.082;5.066;2023-02-12T15:51:14;29.60;;;15.30;;
65759;SDS011;52496;51.082;5.066;2023-02-12T15:54:22;32.78;;;14.98;;
65759;SDS011;52496;51.082;5.066;2023-02-12T15:56:57;30.13;;;14.90;;
65759;SDS011;52496;51.082;5.066;2023-02-12T15:59:32;29.38;;;15.48;;
65759;SDS011;52496;51.082;5.066;2023-02-12T16:02:46;30.05;;;15.60;;
65759;SDS011;52496;51.082;5.066;2023-02-12T16:05:33;31.73;;;15.50;;
65759;SDS011;52496;51.082;5.066;2023-02-12T16:08:35;28.80;;;14.48;;
65759;SDS011;52496;51.082;5.066;2023-02-12T16:11:17;26.92;;;14.05;;
65759;SDS011;52496;51.082;5.066;2023-02-12T16:14:05;31.55;;;15.73;;
65759;SDS011;52496;51.082;5.066;2023-02-12T16:16:57;28.00;;;14.18;;
65759;SDS011;52496;51.082;5.066;2023-02-12T16:19:34;31.50;;;15.65;;
65759;SDS011;52496;51.082;5.066;2023-02-12T16:26:25;25.80;;;14.00;;
65759;SDS011;52496;51.082;5.066;2023-02-12T16:28:56;31.33;;;14.98;;
65759;SDS011;52496;51.082;5.066;2023-02-12T16:31:27;34.97;;;16.30;;
65759;SDS011;52496;51.082;5.066;2023-02-12T16:33:58;28.48;;;15.32;;
65759;SDS011;52496;51.082;5.066;2023-02-12T16:36:29;28.95;;;14.32;;
65759;SDS011;52496;51.082;5.066;2023-02-12T16:39:02;32.28;;;16.70;;
65759;SDS011;52496;51.082;5.066;2023-02-12T16:41:49;35.58;;;15.20;;
65759;SDS011;52496;51.082;5.066;2023-02-12T16:44:25;29.65;;;15.52;;
65759;SDS011;52496;51.082;5.066;2023-02-12T16:46:58;33.55;;;15.65;;
65759;SDS011;52496;51.082;5.066;2023-02-12T16:49:30;29.30;;;14.82;;
65759;SDS011;52496;51.082;5.066;2023-02-12T16:55:09;30.75;;;14.60;;
65759;SDS011;52496;51.082;5.066;2023-02-12T16:57:43;31.02;;;13.45;;
65759;SDS011;52496;51.082;5.066;2023-02-12T17:00:14;29.48;;;14.07;;
65759;SDS011;52496;51.082;5.066;2023-02-12T17:02:46;29.25;;;15.18;;
65759;SDS011;52496;51.082;5.066;2023-02-12T17:05:16;29.45;;;14.27;;
65759;SDS011;52496;51.082;5.066;2023-02-12T17:07:47;30.80;;;16.25;;
65759;SDS011;52496;51.082;5.066;2023-02-12T17:10:19;33.33;;;16.27;;
65759;SDS011;52496;51.082;5.066;2023-02-12T17:12:51;29.92;;;14.57;;
65759;SDS011;52496;51.082;5.066;2023-02-12T17:15:27;28.77;;;14.20;;
65759;SDS011;52496;51.082;5.066;2023-02-12T17:18:01;31.40;;;15.48;;
65759;SDS011;52496;51.082;5.066;2023-02-12T17:20:32;33.53;;;15.85;;
65759;SDS011;52496;51.082;5.066;2023-02-12T17:23:02;29.42;;;15.52;;
65759;SDS011;52496;51.082;5.066;2023-02-12T17:25:34;33.22;;;16.23;;
65759;SDS011;52496;51.082;5.066;2023-02-12T17:28:05;34.53;;;16.70;;
65759;SDS011;52496;51.082;5.066;2023-02-12T17:30:37;37.63;;;17.73;;
65759;SDS011;52496;51.082;5.066;2023-02-12T17:33:08;34.58;;;15.68;;
65759;SDS011;52496;51.082;5.066;2023-02-12T17:35:38;36.40;;;16.20;;
65759;SDS011;52496;51.082;5.066;2023-02-12T17:38:09;34.63;;;16.52;;
65759;SDS011;52496;51.082;5.066;2023-02-12T17:40:40;29.70;;;15.52;;
65759;SDS011;52496;51.082;5.066;2023-02-12T17:43:11;38.38;;;17.48;;
65759;SDS011;52496;51.082;5.066;2023-02-12T17:45:42;34.72;;;17.38;;
65759;SDS011;52496;51.082;5.066;2023-02-12T17:48:13;34.75;;;16.50;;
65759;SDS011;52496;51.082;5.066;2023-02-12T17:50:45;33.65;;;16.17;;
65759;SDS011;52496;51.082;5.066;2023-02-12T17:53:23;35.20;;;16.52;;
65759;SDS011;52496;51.082;5.066;2023-02-12T17:55:54;32.55;;;16.25;;
65759;SDS011;52496;51.082;5.066;2023-02-12T17:58:24;35.60;;;16.30;;
65759;SDS011;52496;51.082;5.066;2023-02-12T18:00:55;38.75;;;19.55;;
65759;SDS011;52496;51.082;5.066;2023-02-12T18:03:26;33.47;;;16.27;;
65759;SDS011;52496;51.082;5.066;2023-02-12T18:05:56;40.53;;;18.25;;
65759;SDS011;52496;51.082;5.066;2023-02-12T18:08:27;34.92;;;15.55;;